createdAt,value
2023-01-23T00:00:13.493Z,1033.15
2023-01-23T00:01:13.585Z,1033.15
2023-01-23T00:02:13.660Z,1033.14
2023-01-23T00:03:13.799Z,1033.14
2023-01-23T00:04:13.890Z,1033.13
2023-01-23T00:05:13.139Z,1033.11
2023-01-23T00:06:13.432Z,1033.17
2023-01-23T00:07:13.490Z,1033.13
2023-01-23T00:08:13.391Z,1033.13
2023-01-23T00:09:13.363Z,1033.13
2023-01-23T00:10:13.408Z,1033.14
2023-01-23T00:11:13.493Z,1033.14
2023-01-23T00:12:13.482Z,1033.13
2023-01-23T00:13:13.655Z,1033.17
2023-01-23T00:14:13.739Z,1033.18
2023-01-23T00:15:13.929Z,1033.14
2023-01-23T00:16:13.026Z,1033.14
2023-01-23T00:17:13.004Z,1033.15
2023-01-23T00:18:12.972Z,1033.18
2023-01-23T00:19:13.042Z,1033.16
2023-01-23T00:20:13.137Z,1033.14
2023-01-23T00:21:13.178Z,1033.09
2023-01-23T00:22:19.283Z,1033.11
2023-01-23T00:23:13.394Z,1033.11
2023-01-23T00:24:13.447Z,1033.11
2023-01-23T00:25:13.383Z,1033.12
2023-01-23T00:26:13.303Z,1033.11
2023-01-23T00:27:13.217Z,1033.12
2023-01-23T00:28:13.212Z,1033.11
2023-01-23T00:29:13.149Z,1033.11
2023-01-23T00:30:13.059Z,1033.14
2023-01-23T00:31:13.345Z,1033.13
2023-01-23T00:32:13.303Z,1033.13
2023-01-23T00:33:13.597Z,1033.16
2023-01-23T00:34:13.570Z,1033.14
2023-01-23T00:35:13.666Z,1033.16
2023-01-23T00:36:13.590Z,1033.17
2023-01-23T00:37:13.540Z,1033.13
2023-01-23T00:38:13.533Z,1033.19
2023-01-23T00:39:13.686Z,1033.19
2023-01-23T00:40:13.674Z,1033.21
2023-01-23T00:41:13.577Z,1033.22
2023-01-23T00:42:13.593Z,1033.19
2023-01-23T00:43:13.893Z,1033.19
2023-01-23T00:44:13.043Z,1033.25
2023-01-23T00:45:12.962Z,1033.17
2023-01-23T00:46:14.119Z,1033.16
2023-01-23T00:47:13.135Z,1033.19
2023-01-23T00:48:13.001Z,1033.18
2023-01-23T00:49:13.023Z,1033.17
2023-01-23T00:50:12.886Z,1033.21
2023-01-23T00:51:13.090Z,1033.22
2023-01-23T00:52:13.129Z,1033.24
2023-01-23T00:53:13.037Z,1033.20
2023-01-23T00:54:12.867Z,1033.19
2023-01-23T00:55:13.832Z,1033.19
2023-01-23T00:56:14.009Z,1033.21
2023-01-23T00:57:12.935Z,1033.21
2023-01-23T00:58:12.795Z,1033.20
2023-01-23T00:59:13.630Z,1033.19
2023-01-23T01:00:13.535Z,1033.18
2023-01-23T01:01:13.413Z,1033.16
2023-01-23T01:02:13.494Z,1033.23
2023-01-23T01:03:13.543Z,1033.28
2023-01-23T01:04:13.513Z,1033.25
2023-01-23T01:05:13.389Z,1033.25
2023-01-23T01:06:13.386Z,1033.26
2023-01-23T01:07:13.232Z,1033.31
2023-01-23T01:08:13.168Z,1033.33
2023-01-23T01:09:13.198Z,1033.31
2023-01-23T01:10:13.150Z,1033.35
2023-01-23T01:11:13.182Z,1033.33
2023-01-23T01:12:13.077Z,1033.37
2023-01-23T01:13:13.108Z,1033.36
2023-01-23T01:14:18.172Z,1033.38
2023-01-23T01:15:13.128Z,1033.38
2023-01-23T01:16:13.130Z,1033.38
2023-01-23T01:17:13.057Z,1033.39
2023-01-23T01:18:13.060Z,1033.38
2023-01-23T01:19:13.000Z,1033.42
2023-01-23T01:20:13.052Z,1033.43
2023-01-23T01:21:12.986Z,1033.47
2023-01-23T01:22:12.838Z,1033.47
2023-01-23T01:23:13.988Z,1033.45
2023-01-23T01:24:13.001Z,1033.46
2023-01-23T01:25:13.074Z,1033.47
2023-01-23T01:26:13.207Z,1033.49
2023-01-23T01:27:13.375Z,1033.49
2023-01-23T01:28:13.258Z,1033.47
2023-01-23T01:29:13.209Z,1033.50
2023-01-23T01:30:13.211Z,1033.47
2023-01-23T01:31:13.265Z,1033.48
2023-01-23T01:32:13.381Z,1033.48
2023-01-23T01:33:13.251Z,1033.49
2023-01-23T01:34:13.335Z,1033.47
2023-01-23T01:35:13.164Z,1033.46
2023-01-23T01:36:13.076Z,1033.47
2023-01-23T01:37:13.074Z,1033.51
2023-01-23T01:38:12.878Z,1033.59
2023-01-23T01:39:12.734Z,1033.58
2023-01-23T01:40:13.764Z,1033.55
2023-01-23T01:41:13.665Z,1033.54
2023-01-23T01:42:13.846Z,1033.55
2023-01-23T01:43:13.750Z,1033.58
2023-01-23T01:44:13.866Z,1033.54
2023-01-23T01:45:13.746Z,1033.50
2023-01-23T01:46:13.700Z,1033.48
2023-01-23T01:47:13.891Z,1033.48
2023-01-23T01:48:12.867Z,1033.46
2023-01-23T01:49:13.173Z,1033.44
2023-01-23T01:50:13.275Z,1033.41
2023-01-23T01:51:13.232Z,1033.48
2023-01-23T01:52:13.547Z,1033.51
2023-01-23T01:53:13.487Z,1033.51
2023-01-23T01:54:13.581Z,1033.54
2023-01-23T01:55:13.446Z,1033.52
2023-01-23T01:56:13.469Z,1033.52
2023-01-23T01:57:13.309Z,1033.51
2023-01-23T01:58:13.397Z,1033.49
2023-01-23T01:59:13.366Z,1033.51
2023-01-23T02:00:13.572Z,1033.49
2023-01-23T02:01:13.575Z,1033.51
2023-01-23T02:02:13.637Z,1033.53
2023-01-23T02:03:13.841Z,1033.52
2023-01-23T02:04:13.840Z,1033.53
2023-01-23T02:05:13.699Z,1033.50
2023-01-23T02:06:13.703Z,1033.51
2023-01-23T02:07:13.541Z,1033.52
2023-01-23T02:08:13.488Z,1033.52
2023-01-23T02:09:13.526Z,1033.51
2023-01-23T02:10:13.455Z,1033.47
2023-01-23T02:11:13.304Z,1033.49
2023-01-23T02:12:13.226Z,1033.49
2023-01-23T02:13:13.724Z,1033.53
2023-01-23T02:14:13.602Z,1033.53
2023-01-23T02:15:13.501Z,1033.53
2023-01-23T02:16:13.487Z,1033.51
2023-01-23T02:17:13.558Z,1033.52
2023-01-23T02:18:13.471Z,1033.54
2023-01-23T02:19:13.994Z,1033.57
2023-01-23T02:20:12.901Z,1033.56
2023-01-23T02:21:13.212Z,1033.55
2023-01-23T02:22:13.602Z,1033.57
2023-01-23T02:23:13.463Z,1033.59
2023-01-23T02:24:13.315Z,1033.55
2023-01-23T02:25:13.262Z,1033.60
2023-01-23T02:26:13.219Z,1033.60
2023-01-23T02:27:13.101Z,1033.63
2023-01-23T02:28:13.324Z,1033.65
2023-01-23T02:29:13.473Z,1033.66
2023-01-23T02:30:13.426Z,1033.67
2023-01-23T02:31:13.369Z,1033.63
2023-01-23T02:32:13.312Z,1033.64
2023-01-23T02:33:13.267Z,1033.67
2023-01-23T02:34:13.257Z,1033.66
2023-01-23T02:35:13.148Z,1033.70
2023-01-23T02:36:13.051Z,1033.74
2023-01-23T02:37:13.167Z,1033.72
2023-01-23T02:38:13.057Z,1033.72
2023-01-23T02:39:13.050Z,1033.72
2023-01-23T02:40:13.008Z,1033.69
2023-01-23T02:41:12.932Z,1033.70
2023-01-23T02:42:12.822Z,1033.67
2023-01-23T02:43:13.701Z,1033.68
2023-01-23T02:44:13.585Z,1033.71
2023-01-23T02:45:13.607Z,1033.74
2023-01-23T02:46:13.676Z,1033.75
2023-01-23T02:47:13.721Z,1033.75
2023-01-23T02:48:13.685Z,1033.73
2023-01-23T02:49:13.661Z,1033.72
2023-01-23T02:50:14.042Z,1033.73
2023-01-23T02:51:12.996Z,1033.72
2023-01-23T02:52:12.930Z,1033.72
2023-01-23T02:53:12.793Z,1033.76
2023-01-23T02:54:13.814Z,1033.75
2023-01-23T02:55:13.770Z,1033.77
2023-01-23T02:56:13.718Z,1033.77
2023-01-23T02:57:13.635Z,1033.83
2023-01-23T02:58:13.492Z,1033.77
2023-01-23T02:59:13.384Z,1033.76
2023-01-23T03:00:13.611Z,1033.74
2023-01-23T03:01:13.780Z,1033.78
2023-01-23T03:02:13.792Z,1033.74
2023-01-23T03:03:13.808Z,1033.72
2023-01-23T03:04:13.902Z,1033.78
2023-01-23T03:05:13.135Z,1033.74
2023-01-23T03:06:13.049Z,1033.74
2023-01-23T03:07:13.306Z,1033.69
2023-01-23T03:08:13.956Z,1033.69
2023-01-23T03:09:12.950Z,1033.71
2023-01-23T03:10:12.860Z,1033.64
2023-01-23T03:11:13.675Z,1033.61
2023-01-23T03:12:13.618Z,1033.62
2023-01-23T03:13:13.503Z,1033.57
2023-01-23T03:14:13.514Z,1033.59
2023-01-23T03:15:13.570Z,1033.60
2023-01-23T03:16:13.578Z,1033.57
2023-01-23T03:17:13.557Z,1033.66
2023-01-23T03:18:13.607Z,1033.65
2023-01-23T03:19:13.502Z,1033.66
2023-01-23T03:20:13.455Z,1033.69
2023-01-23T03:21:13.257Z,1033.71
2023-01-23T03:22:13.226Z,1033.73
2023-01-23T03:23:13.235Z,1033.72
2023-01-23T03:24:13.577Z,1033.72
2023-01-23T03:25:13.440Z,1033.76
2023-01-23T03:26:13.514Z,1033.75
2023-01-23T03:27:13.809Z,1033.78
2023-01-23T03:28:13.655Z,1033.76
2023-01-23T03:29:13.504Z,1033.76
2023-01-23T03:30:13.414Z,1033.77
2023-01-23T03:31:13.593Z,1033.77
2023-01-23T03:32:13.683Z,1033.73
2023-01-23T03:33:13.595Z,1033.71
2023-01-23T03:34:13.582Z,1033.70
2023-01-23T03:35:13.750Z,1033.72
2023-01-23T03:36:14.098Z,1033.70
2023-01-23T03:37:12.991Z,1033.71
2023-01-23T03:38:12.835Z,1033.74
2023-01-23T03:39:13.773Z,1033.75
2023-01-23T03:40:13.869Z,1033.74
2023-01-23T03:41:12.810Z,1033.75
2023-01-23T03:42:13.896Z,1033.73
2023-01-23T03:43:12.911Z,1033.79
2023-01-23T03:44:13.252Z,1033.76
2023-01-23T03:45:13.380Z,1033.70
2023-01-23T03:46:13.572Z,1033.70
2023-01-23T03:47:13.831Z,1033.66
2023-01-23T03:48:13.811Z,1033.64
2023-01-23T03:49:14.116Z,1033.66
2023-01-23T03:50:13.122Z,1033.66
2023-01-23T03:51:13.524Z,1033.69
2023-01-23T03:52:13.983Z,1033.70
2023-01-23T03:53:12.968Z,1033.75
2023-01-23T03:54:12.920Z,1033.75
2023-01-23T03:55:12.985Z,1033.79
2023-01-23T03:56:12.923Z,1033.81
2023-01-23T03:57:12.839Z,1033.77
2023-01-23T03:58:13.744Z,1033.79
2023-01-23T03:59:13.753Z,1033.81
2023-01-23T04:00:13.842Z,1033.75
2023-01-23T04:01:13.804Z,1033.74
2023-01-23T04:02:13.957Z,1033.78
2023-01-23T04:03:13.039Z,1033.78
2023-01-23T04:04:13.190Z,1033.79
2023-01-23T04:05:13.204Z,1033.79
2023-01-23T04:06:13.395Z,1033.80
2023-01-23T04:07:14.551Z,1033.80
2023-01-23T04:08:13.988Z,1033.80
2023-01-23T04:09:13.313Z,1033.82
2023-01-23T04:10:13.444Z,1033.80
2023-01-23T04:11:13.672Z,1033.79
2023-01-23T04:12:13.709Z,1033.78
2023-01-23T04:13:13.730Z,1033.79
2023-01-23T04:14:13.627Z,1033.85
2023-01-23T04:15:13.948Z,1033.91
2023-01-23T04:16:12.838Z,1033.90
2023-01-23T04:17:13.741Z,1033.92
2023-01-23T04:18:13.729Z,1033.91
2023-01-23T04:19:15.032Z,1033.95
2023-01-23T04:20:13.121Z,1033.91
2023-01-23T04:21:13.024Z,1033.96
2023-01-23T04:22:13.119Z,1033.96
2023-01-23T04:23:13.119Z,1033.99
2023-01-23T04:24:12.982Z,1034.02
2023-01-23T04:25:13.791Z,1033.99
2023-01-23T04:26:13.652Z,1033.97
2023-01-23T04:27:24.063Z,1034.00
2023-01-23T04:28:13.088Z,1034.02
2023-01-23T04:29:13.211Z,1034.01
2023-01-23T04:30:13.193Z,1034.02
2023-01-23T04:31:13.258Z,1034.04
2023-01-23T04:32:13.266Z,1034.03
2023-01-23T04:33:13.191Z,1034.05
2023-01-23T04:34:13.171Z,1033.99
2023-01-23T04:35:13.095Z,1033.99
2023-01-23T04:36:13.307Z,1033.95
2023-01-23T04:37:13.239Z,1033.94
2023-01-23T04:38:13.681Z,1033.94
2023-01-23T04:39:13.643Z,1033.98
2023-01-23T04:40:13.971Z,1033.97
2023-01-23T04:41:12.865Z,1033.93
2023-01-23T04:42:14.036Z,1034.00
2023-01-23T04:43:13.371Z,1033.99
2023-01-23T04:44:13.560Z,1033.99
2023-01-23T04:45:13.763Z,1033.97
2023-01-23T04:46:14.138Z,1033.95
2023-01-23T04:47:13.057Z,1033.95
2023-01-23T04:48:13.351Z,1033.95
2023-01-23T04:49:13.519Z,1033.94
2023-01-23T04:50:13.739Z,1033.94
2023-01-23T04:51:13.814Z,1033.94
2023-01-23T04:52:13.910Z,1033.92
2023-01-23T04:53:12.930Z,1033.89
2023-01-23T04:54:12.957Z,1033.93
2023-01-23T04:55:13.135Z,1033.91
2023-01-23T04:56:13.098Z,1033.90
2023-01-23T04:57:13.261Z,1033.86
2023-01-23T04:58:13.688Z,1033.90
2023-01-23T04:59:13.561Z,1033.85
2023-01-23T05:00:13.636Z,1033.87
2023-01-23T05:01:13.739Z,1033.84
2023-01-23T05:02:14.121Z,1033.84
2023-01-23T05:03:13.146Z,1033.83
2023-01-23T05:04:13.176Z,1033.83
2023-01-23T05:05:13.207Z,1033.82
2023-01-23T05:06:13.072Z,1033.77
2023-01-23T05:07:13.191Z,1033.80
2023-01-23T05:08:13.515Z,1033.80
2023-01-23T05:09:13.936Z,1033.82
2023-01-23T05:10:12.858Z,1033.79
2023-01-23T05:11:14.240Z,1033.81
2023-01-23T05:12:13.067Z,1033.79
2023-01-23T05:13:12.932Z,1033.77
2023-01-23T05:14:13.070Z,1033.79
2023-01-23T05:15:12.965Z,1033.79
2023-01-23T05:16:12.981Z,1033.78
2023-01-23T05:17:13.076Z,1033.77
2023-01-23T05:18:13.457Z,1033.80
2023-01-23T05:19:13.472Z,1033.82
2023-01-23T05:20:13.398Z,1033.80
2023-01-23T05:21:13.391Z,1033.83
2023-01-23T05:22:13.494Z,1033.80
2023-01-23T05:23:13.440Z,1033.83
2023-01-23T05:24:13.374Z,1033.84
2023-01-23T05:25:13.397Z,1033.87
2023-01-23T05:26:13.632Z,1033.87
2023-01-23T05:27:13.824Z,1033.88
2023-01-23T05:28:13.874Z,1033.89
2023-01-23T05:29:13.790Z,1033.93
2023-01-23T05:30:13.932Z,1033.90
2023-01-23T05:31:13.091Z,1033.90
2023-01-23T05:32:13.468Z,1033.93
2023-01-23T05:33:13.283Z,1033.96
2023-01-23T05:34:13.117Z,1033.96
2023-01-23T05:35:13.270Z,1033.94
2023-01-23T05:36:13.348Z,1033.96
2023-01-23T05:37:13.500Z,1034.02
2023-01-23T05:38:13.454Z,1033.98
2023-01-23T05:39:13.633Z,1034.02
2023-01-23T05:40:13.584Z,1034.02
2023-01-23T05:41:13.529Z,1034.05
2023-01-23T05:42:13.334Z,1034.02
2023-01-23T05:43:13.226Z,1034.10
2023-01-23T05:44:13.230Z,1034.07
2023-01-23T05:45:13.142Z,1034.04
2023-01-23T05:46:13.185Z,1034.10
2023-01-23T05:47:13.483Z,1034.09
2023-01-23T05:48:13.416Z,1034.06
2023-01-23T05:49:13.611Z,1034.07
2023-01-23T05:50:13.561Z,1034.06
2023-01-23T05:51:13.817Z,1034.14
2023-01-23T05:52:14.130Z,1034.13
2023-01-23T05:53:13.368Z,1034.12
2023-01-23T05:54:13.521Z,1034.12
2023-01-23T05:55:13.463Z,1034.15
2023-01-23T05:56:13.522Z,1034.15
2023-01-23T05:57:13.566Z,1034.20
2023-01-23T05:58:15.928Z,1034.21
2023-01-23T06:00:13.225Z,1034.17
2023-01-23T06:01:13.258Z,1034.19
2023-01-23T06:02:13.287Z,1034.17
2023-01-23T06:03:13.320Z,1034.21
2023-01-23T06:04:13.299Z,1034.20
2023-01-23T06:05:13.343Z,1034.20
2023-01-23T06:06:13.310Z,1034.15
2023-01-23T06:07:13.464Z,1034.17
2023-01-23T06:08:13.422Z,1034.21
2023-01-23T06:09:13.353Z,1034.19
2023-01-23T06:10:13.544Z,1034.21
2023-01-23T06:11:13.425Z,1034.23
2023-01-23T06:12:13.356Z,1034.22
2023-01-23T06:13:13.463Z,1034.22
2023-01-23T06:14:13.804Z,1034.25
2023-01-23T06:15:13.695Z,1034.23
2023-01-23T06:16:14.139Z,1034.23
2023-01-23T06:17:13.108Z,1034.24
2023-01-23T06:18:13.430Z,1034.27
2023-01-23T06:19:13.808Z,1034.30
2023-01-23T06:20:13.787Z,1034.24
2023-01-23T06:21:14.239Z,1034.31
2023-01-23T06:22:13.260Z,1034.29
2023-01-23T06:23:13.220Z,1034.31
2023-01-23T06:24:13.424Z,1034.31
2023-01-23T06:25:13.316Z,1034.34
2023-01-23T06:26:13.340Z,1034.30
2023-01-23T06:27:13.276Z,1034.34
2023-01-23T06:28:13.309Z,1034.38
2023-01-23T06:29:13.221Z,1034.42
2023-01-23T06:30:13.143Z,1034.41
2023-01-23T06:31:13.135Z,1034.40
2023-01-23T06:32:13.286Z,1034.42
2023-01-23T06:33:13.743Z,1034.43
2023-01-23T06:34:14.229Z,1034.45
2023-01-23T06:35:13.166Z,1034.45
2023-01-23T06:36:13.139Z,1034.47
2023-01-23T06:37:12.985Z,1034.50
2023-01-23T06:38:13.073Z,1034.52
2023-01-23T06:39:13.431Z,1034.53
2023-01-23T06:40:13.509Z,1034.50
2023-01-23T06:41:13.587Z,1034.59
2023-01-23T06:42:13.618Z,1034.59
2023-01-23T06:43:14.116Z,1034.56
2023-01-23T06:44:13.040Z,1034.63
2023-01-23T06:45:12.924Z,1034.61
2023-01-23T06:46:13.002Z,1034.67
2023-01-23T06:47:13.203Z,1034.65
2023-01-23T06:48:13.080Z,1034.68
2023-01-23T06:49:14.495Z,1034.69
2023-01-23T06:50:13.648Z,1034.70
2023-01-23T06:51:13.721Z,1034.73
2023-01-23T06:52:13.987Z,1034.77
2023-01-23T06:53:12.917Z,1034.77
2023-01-23T06:54:13.290Z,1034.76
2023-01-23T06:55:14.730Z,1034.72
2023-01-23T06:56:13.737Z,1034.76
2023-01-23T06:57:13.729Z,1034.76
2023-01-23T06:58:13.575Z,1034.78
2023-01-23T06:59:13.626Z,1034.80
2023-01-23T07:00:13.574Z,1034.81
2023-01-23T07:01:13.632Z,1034.83
2023-01-23T07:02:13.612Z,1034.82
2023-01-23T07:03:13.561Z,1034.85
2023-01-23T07:04:13.612Z,1034.86
2023-01-23T07:05:13.902Z,1034.81
2023-01-23T07:06:12.967Z,1034.83
2023-01-23T07:07:12.904Z,1034.81
2023-01-23T07:08:13.109Z,1034.83
2023-01-23T07:09:13.403Z,1034.85
2023-01-23T07:10:15.087Z,1034.85
2023-01-23T07:11:13.205Z,1034.83
2023-01-23T07:12:13.506Z,1034.82
2023-01-23T07:13:13.472Z,1034.89
2023-01-23T07:14:13.855Z,1034.88
2023-01-23T07:15:14.091Z,1034.93
2023-01-23T07:16:13.117Z,1034.92
2023-01-23T07:17:13.087Z,1034.97
2023-01-23T07:18:13.314Z,1034.93
2023-01-23T07:19:13.157Z,1034.93
2023-01-23T07:20:13.058Z,1034.98
2023-01-23T07:21:12.958Z,1034.99
2023-01-23T07:22:12.898Z,1034.99
2023-01-23T07:23:12.972Z,1035.00
2023-01-23T07:24:12.842Z,1035.05
2023-01-23T07:25:13.986Z,1035.01
2023-01-23T07:26:13.121Z,1035.05
2023-01-23T07:27:13.264Z,1035.08
2023-01-23T07:28:13.102Z,1035.16
2023-01-23T07:29:12.933Z,1035.12
2023-01-23T07:30:12.839Z,1035.17
2023-01-23T07:31:14.264Z,1035.17
2023-01-23T07:32:13.625Z,1035.18
2023-01-23T07:33:13.554Z,1035.17
2023-01-23T07:34:13.960Z,1035.22
2023-01-23T07:35:13.055Z,1035.21
2023-01-23T07:36:13.145Z,1035.24
2023-01-23T07:37:13.092Z,1035.17
2023-01-23T07:38:13.170Z,1035.22
2023-01-23T07:39:13.529Z,1035.24
2023-01-23T07:40:13.457Z,1035.25
2023-01-23T07:41:13.612Z,1035.23
2023-01-23T07:42:13.616Z,1035.24
2023-01-23T07:43:13.895Z,1035.29
2023-01-23T07:44:13.211Z,1035.31
2023-01-23T07:45:13.100Z,1035.30
2023-01-23T07:46:13.172Z,1035.28
2023-01-23T07:47:13.448Z,1035.31
2023-01-23T07:48:13.887Z,1035.31
2023-01-23T07:49:12.867Z,1035.31
2023-01-23T07:50:14.061Z,1035.33
2023-01-23T07:51:13.294Z,1035.31
2023-01-23T07:52:13.240Z,1035.36
2023-01-23T07:53:13.595Z,1035.31
2023-01-23T07:54:13.823Z,1035.31
2023-01-23T07:55:13.909Z,1035.30
2023-01-23T07:56:12.996Z,1035.35
2023-01-23T07:57:13.075Z,1035.30
2023-01-23T07:58:13.307Z,1035.33
2023-01-23T07:59:13.284Z,1035.32
2023-01-23T08:00:13.580Z,1035.33
2023-01-23T08:01:13.890Z,1035.29
2023-01-23T08:02:12.997Z,1035.33
2023-01-23T08:03:12.917Z,1035.40
2023-01-23T08:04:12.801Z,1035.36
2023-01-23T08:05:13.743Z,1035.35
2023-01-23T08:06:13.694Z,1035.40
2023-01-23T08:07:13.590Z,1035.41
2023-01-23T08:08:14.126Z,1035.39
2023-01-23T08:09:13.051Z,1035.38
2023-01-23T08:10:13.079Z,1035.39
2023-01-23T08:11:13.091Z,1035.37
2023-01-23T08:12:15.342Z,1035.39
2023-01-23T08:13:13.327Z,1035.40
2023-01-23T08:14:13.294Z,1035.42
2023-01-23T08:15:13.254Z,1035.46
2023-01-23T08:16:13.829Z,1035.49
2023-01-23T08:17:13.036Z,1035.50
2023-01-23T08:18:12.858Z,1035.46
2023-01-23T08:19:13.776Z,1035.48
2023-01-23T08:20:13.787Z,1035.52
2023-01-23T08:21:13.734Z,1035.48
2023-01-23T08:22:13.531Z,1035.46
2023-01-23T08:23:13.438Z,1035.45
2023-01-23T08:24:13.735Z,1035.44
2023-01-23T08:25:13.609Z,1035.49
2023-01-23T08:26:13.711Z,1035.43
2023-01-23T08:27:13.741Z,1035.41
2023-01-23T08:28:13.610Z,1035.43
2023-01-23T08:29:13.750Z,1035.44
2023-01-23T08:30:13.930Z,1035.39
2023-01-23T08:31:12.957Z,1035.42
2023-01-23T08:32:12.961Z,1035.39
2023-01-23T08:33:13.145Z,1035.42
2023-01-23T08:34:13.156Z,1035.42
2023-01-23T08:35:13.084Z,1035.44
2023-01-23T08:36:13.234Z,1035.38
2023-01-23T08:37:13.197Z,1035.36
2023-01-23T08:38:13.246Z,1035.41
2023-01-23T08:39:13.357Z,1035.37
2023-01-23T08:40:13.299Z,1035.35
2023-01-23T08:41:13.353Z,1035.37
2023-01-23T08:42:13.267Z,1035.35
2023-01-23T08:43:13.586Z,1035.34
2023-01-23T08:44:13.479Z,1035.38
2023-01-23T08:45:13.729Z,1035.38
2023-01-23T08:46:13.804Z,1035.42
2023-01-23T08:47:13.745Z,1035.42
2023-01-23T08:48:13.593Z,1035.43
2023-01-23T08:49:13.558Z,1035.49
2023-01-23T08:50:13.824Z,1035.53
2023-01-23T08:51:14.159Z,1035.52
2023-01-23T08:52:13.452Z,1035.50
2023-01-23T08:53:13.456Z,1035.54
2023-01-23T08:54:13.408Z,1035.56
2023-01-23T08:55:13.284Z,1035.57
2023-01-23T08:56:14.975Z,1035.56
2023-01-23T08:57:13.869Z,1035.58
2023-01-23T08:58:14.034Z,1035.57
2023-01-23T08:59:13.259Z,1035.55
2023-01-23T09:00:13.147Z,1035.61
2023-01-23T09:01:13.114Z,1035.55
2023-01-23T09:02:13.221Z,1035.60
2023-01-23T09:03:13.323Z,1035.57
2023-01-23T09:04:13.259Z,1035.55
2023-01-23T09:05:13.301Z,1035.57
2023-01-23T09:06:13.102Z,1035.59
2023-01-23T09:07:18.131Z,1035.56
2023-01-23T09:08:13.129Z,1035.54
2023-01-23T09:09:13.078Z,1035.54
2023-01-23T09:10:13.031Z,1035.53
2023-01-23T09:11:12.974Z,1035.51
2023-01-23T09:12:13.442Z,1035.51
2023-01-23T09:13:14.306Z,1035.53
2023-01-23T09:14:13.819Z,1035.54
2023-01-23T09:15:13.709Z,1035.55
2023-01-23T09:16:14.162Z,1035.56
2023-01-23T09:17:13.149Z,1035.57
2023-01-23T09:18:13.046Z,1035.58
2023-01-23T09:19:13.103Z,1035.62
2023-01-23T09:20:13.408Z,1035.59
2023-01-23T09:21:13.675Z,1035.59
2023-01-23T09:22:13.685Z,1035.60
2023-01-23T09:23:13.964Z,1035.61
2023-01-23T09:24:12.851Z,1035.62
2023-01-23T09:25:13.815Z,1035.60
2023-01-23T09:26:13.836Z,1035.61
2023-01-23T09:27:13.655Z,1035.59
2023-01-23T09:28:13.586Z,1035.59
2023-01-23T09:29:13.429Z,1035.59
2023-01-23T09:30:13.377Z,1035.57
2023-01-23T09:31:13.431Z,1035.56
2023-01-23T09:32:13.348Z,1035.60
2023-01-23T09:33:13.449Z,1035.59
2023-01-23T09:34:14.983Z,1035.59
2023-01-23T09:35:13.194Z,1035.62
2023-01-23T09:36:13.644Z,1035.67
2023-01-23T09:37:13.869Z,1035.70
2023-01-23T09:38:18.844Z,1035.70
2023-01-23T09:39:14.115Z,1035.71
2023-01-23T09:40:13.038Z,1035.69
2023-01-23T09:41:14.606Z,1035.71
2023-01-23T09:42:13.726Z,1035.70
2023-01-23T09:43:13.856Z,1035.74
2023-01-23T09:44:13.813Z,1035.73
2023-01-23T09:45:13.757Z,1035.73
2023-01-23T09:46:13.805Z,1035.77
2023-01-23T09:47:13.717Z,1035.74
2023-01-23T09:48:13.667Z,1035.76
2023-01-23T09:49:13.540Z,1035.77
2023-01-23T09:50:13.495Z,1035.83
2023-01-23T09:51:13.813Z,1035.85
2023-01-23T09:52:14.226Z,1035.83
2023-01-23T09:53:13.161Z,1035.84
2023-01-23T09:54:13.012Z,1035.83
2023-01-23T09:55:12.946Z,1035.84
2023-01-23T09:56:12.895Z,1035.86
2023-01-23T09:57:12.950Z,1035.84
2023-01-23T09:58:13.278Z,1035.87
2023-01-23T09:59:15.380Z,1035.84
2023-01-23T10:00:23.336Z,1035.86
2023-01-23T10:01:13.944Z,1035.84
2023-01-23T10:02:13.458Z,1035.80
2023-01-23T10:03:13.580Z,1035.81
2023-01-23T10:04:18.653Z,1035.80
2023-01-23T10:05:33.786Z,1035.83
2023-01-23T10:06:13.960Z,1035.83
2023-01-23T10:07:13.067Z,1035.85
2023-01-23T10:08:13.235Z,1035.85
2023-01-23T10:09:13.317Z,1035.81
2023-01-23T10:10:13.493Z,1035.79
2023-01-23T10:11:13.806Z,1035.82
2023-01-23T10:12:13.708Z,1035.85
2023-01-23T10:13:16.326Z,1035.84
2023-01-23T10:14:17.252Z,1035.83
2023-01-23T10:15:13.431Z,1035.85
2023-01-23T10:16:13.452Z,1035.90
2023-01-23T10:17:13.382Z,1035.88
2023-01-23T10:18:13.682Z,1035.91
2023-01-23T10:19:13.571Z,1035.89
2023-01-23T10:20:13.869Z,1035.87
2023-01-23T10:21:14.006Z,1035.89
2023-01-23T10:22:22.979Z,1035.89
2023-01-23T10:23:13.477Z,1035.94
2023-01-23T10:24:13.568Z,1035.94
2023-01-23T10:25:13.748Z,1035.92
2023-01-23T10:26:14.342Z,1035.89
2023-01-23T10:27:13.383Z,1035.87
2023-01-23T10:28:14.667Z,1035.90
2023-01-23T10:29:14.008Z,1035.90
2023-01-23T10:30:13.087Z,1035.90
2023-01-23T10:31:13.515Z,1035.91
2023-01-23T10:32:13.536Z,1035.93
2023-01-23T10:33:13.653Z,1035.93
2023-01-23T10:34:13.661Z,1035.94
2023-01-23T10:35:13.750Z,1035.98
2023-01-23T10:36:17.482Z,1035.99
2023-01-23T10:37:13.756Z,1036.01
2023-01-23T10:38:13.776Z,1036.03
2023-01-23T10:39:13.896Z,1036.01
2023-01-23T10:40:13.131Z,1036.01
2023-01-23T10:41:13.181Z,1036.03
2023-01-23T10:42:13.098Z,1035.98
2023-01-23T10:43:13.049Z,1036.02
2023-01-23T10:44:12.947Z,1035.95
2023-01-23T10:45:13.014Z,1035.96
2023-01-23T10:46:13.073Z,1035.98
2023-01-23T10:47:13.137Z,1035.95
2023-01-23T10:48:16.318Z,1035.95
2023-01-23T10:49:13.774Z,1035.93
2023-01-23T10:50:14.127Z,1035.92
2023-01-23T10:51:13.443Z,1035.94
2023-01-23T10:52:14.556Z,1035.85
2023-01-23T10:53:13.484Z,1035.87
2023-01-23T10:54:25.953Z,1035.88
2023-01-23T10:55:13.728Z,1035.88
2023-01-23T10:56:13.967Z,1035.92
2023-01-23T10:57:13.313Z,1035.93
2023-01-23T10:58:13.422Z,1035.88
2023-01-23T10:59:13.556Z,1035.98
2023-01-23T11:00:13.470Z,1035.89
2023-01-23T11:01:13.753Z,1035.87
2023-01-23T11:02:14.045Z,1035.88
2023-01-23T11:03:13.339Z,1035.86
2023-01-23T11:04:13.410Z,1035.81
2023-01-23T11:05:13.287Z,1035.76
2023-01-23T11:06:13.599Z,1035.72
2023-01-23T11:07:16.186Z,1035.72
2023-01-23T11:08:13.577Z,1035.74
2023-01-23T11:09:13.499Z,1035.71
2023-01-23T11:10:13.448Z,1035.73
2023-01-23T11:11:13.377Z,1035.75
2023-01-23T11:12:13.458Z,1035.76
2023-01-23T11:13:13.355Z,1035.73
2023-01-23T11:14:13.426Z,1035.77
2023-01-23T11:15:14.342Z,1035.75
2023-01-23T11:16:13.335Z,1035.74
2023-01-23T11:17:13.238Z,1035.69
2023-01-23T11:18:13.164Z,1035.68
2023-01-23T11:19:13.105Z,1035.66
2023-01-23T11:20:13.078Z,1035.66
2023-01-23T11:21:13.208Z,1035.68
2023-01-23T11:22:13.531Z,1035.72
2023-01-23T11:23:13.719Z,1035.68
2023-01-23T11:24:13.777Z,1035.69
2023-01-23T11:25:14.762Z,1035.71
2023-01-23T11:26:13.695Z,1035.71
2023-01-23T11:27:13.911Z,1035.71
2023-01-23T11:28:12.825Z,1035.70
2023-01-23T11:29:13.737Z,1035.70
2023-01-23T11:30:13.949Z,1035.70
2023-01-23T11:31:15.417Z,1035.68
2023-01-23T11:32:12.965Z,1035.63
2023-01-23T11:33:13.217Z,1035.60
2023-01-23T11:34:13.372Z,1035.63
2023-01-23T11:35:13.234Z,1035.55
2023-01-23T11:36:13.271Z,1035.55
2023-01-23T11:37:13.169Z,1035.54
2023-01-23T11:38:13.247Z,1035.51
2023-01-23T11:39:13.375Z,1035.54
2023-01-23T11:40:13.304Z,1035.54
2023-01-23T11:41:13.200Z,1035.54
2023-01-23T11:42:13.300Z,1035.53
2023-01-23T11:43:13.275Z,1035.59
2023-01-23T11:44:16.793Z,1035.62
2023-01-23T11:45:13.338Z,1035.57
2023-01-23T11:46:18.391Z,1035.54
2023-01-23T11:47:13.720Z,1035.54
2023-01-23T11:48:13.573Z,1035.53
2023-01-23T11:49:13.652Z,1035.52
2023-01-23T11:50:13.595Z,1035.52
2023-01-23T11:51:13.522Z,1035.58
2023-01-23T11:52:13.472Z,1035.57
2023-01-23T11:53:13.544Z,1035.59
2023-01-23T11:54:13.577Z,1035.59
2023-01-23T11:55:13.528Z,1035.63
2023-01-23T11:56:13.498Z,1035.62
2023-01-23T11:57:13.688Z,1035.64
2023-01-23T11:58:13.686Z,1035.67
2023-01-23T11:59:13.727Z,1035.65
2023-01-23T12:00:13.727Z,1035.66
2023-01-23T12:01:13.835Z,1035.70
2023-01-23T12:02:13.879Z,1035.66
2023-01-23T12:03:12.879Z,1035.65
2023-01-23T12:04:14.192Z,1035.64
2023-01-23T12:05:13.141Z,1035.65
2023-01-23T12:06:19.992Z,1035.65